This is the latest recevied weather packets stored in our database for station/object WB9ZLM. If no packets are shown the sender has not sent any weather packets the latest 10 day(s).
| Time | Temp. | Humidity | Pressure | Rain* | Wind** | Luminosity | Snow |
|---|---|---|---|---|---|---|---|
| 1777906921 | 17.22° C | 66% | 1005.8 hPa | 0 mm | - | - | - |
| 1777906860 | 17.22° C | 66% | 1005.8 hPa | 0 mm | - | - | - |
| 1777906021 | 16.67° C | 69% | 1005.8 hPa | 0 mm | - | - | - |
| 1777905960 | 16.67° C | 69% | 1005.8 hPa | 0 mm | - | - | - |
| 1777905121 | 16.11° C | 70% | 1006 hPa | 0 mm | - | - | - |
| 1777905060 | 16.11° C | 70% | 1006 hPa | 0 mm | - | - | - |
| 1777904221 | 15.56° C | 71% | 1006.2 hPa | 0 mm | - | - | - |
| 1777904160 | 15.56° C | 71% | 1006.2 hPa | 0 mm | - | - | - |
| 1777903321 | 15° C | 72% | 1006.5 hPa | 0 mm | - | - | - |
| 1777903260 | 15° C | 72% | 1006.5 hPa | 0 mm | - | - | - |
| 1777902422 | 14.44° C | 73% | 1006.8 hPa | 0 mm | - | - | - |
| 1777902360 | 14.44° C | 73% | 1006.8 hPa | 0 mm | - | - | - |
| 1777901522 | 14.44° C | 74% | 1006.8 hPa | 0 mm | - | - | - |
| 1777901460 | 14.44° C | 74% | 1006.8 hPa | 0 mm | - | - | - |
| 1777900621 | 13.89° C | 75% | 1007.1 hPa | 0 mm | - | - | - |
| 1777900560 | 13.89° C | 75% | 1007.1 hPa | 0 mm | - | - | - |
| 1777899722 | 13.33° C | 76% | 1007.2 hPa | 0 mm | - | - | - |
| 1777899660 | 13.33° C | 76% | 1007.2 hPa | 0 mm | - | - | - |
| 1777898822 | 12.78° C | 72% | 1007.4 hPa | 0 mm | - | - | - |
| 1777898760 | 12.78° C | 72% | 1007.4 hPa | 0 mm | - | - | - |
| 1777897922 | 12.78° C | 73% | 1007.6 hPa | 0 mm | - | - | - |
| 1777897860 | 12.78° C | 73% | 1007.6 hPa | 0 mm | - | - | - |
| 1777897021 | 12.22° C | 72% | 1007.6 hPa | 0 mm | - | - | - |
| 1777896960 | 12.22° C | 72% | 1007.6 hPa | 0 mm | - | - | - |
| 1777896122 | 12.22° C | 71% | 1007.7 hPa | 0 mm | - | - | - |
* Rain latest hour (hover to see other rain measurements)
** Current wind speed in m/s (hover to see current wind gust speed)